sensor_id;sensor_type;location;lat;lon;timestamp;temperature;humidity
2487;DHT22;1254;49.144;8.212;2022-08-19T00:00:38;20.50;99.90
2487;DHT22;1254;49.144;8.212;2022-08-19T00:03:06;20.60;99.90
2487;DHT22;1254;49.144;8.212;2022-08-19T00:05:33;20.50;99.90
2487;DHT22;1254;49.144;8.212;2022-08-19T00:07:59;20.50;99.90
2487;DHT22;1254;49.144;8.212;2022-08-19T00:10:26;20.50;99.90
2487;DHT22;1254;49.144;8.212;2022-08-19T00:12:52;20.50;99.90
2487;DHT22;1254;49.144;8.212;2022-08-19T00:15:21;20.50;99.90
2487;DHT22;1254;49.144;8.212;2022-08-19T00:17:48;20.50;99.90
2487;DHT22;1254;49.144;8.212;2022-08-19T00:20:18;20.50;99.90
2487;DHT22;1254;49.144;8.212;2022-08-19T00:22:46;20.50;99.90
2487;DHT22;1254;49.144;8.212;2022-08-19T00:25:15;20.60;99.90
2487;DHT22;1254;49.144;8.212;2022-08-19T00:27:42;20.50;99.90
2487;DHT22;1254;49.144;8.212;2022-08-19T00:30:09;20.50;99.90
2487;DHT22;1254;49.144;8.212;2022-08-19T00:32:37;20.40;99.90
2487;DHT22;1254;49.144;8.212;2022-08-19T00:35:04;20.30;99.90
2487;DHT22;1254;49.144;8.212;2022-08-19T00:37:31;20.30;99.90
2487;DHT22;1254;49.144;8.212;2022-08-19T00:39:59;20.30;99.90
2487;DHT22;1254;49.144;8.212;2022-08-19T00:42:25;20.30;99.90
2487;DHT22;1254;49.144;8.212;2022-08-19T00:44:54;20.40;99.90
2487;DHT22;1254;49.144;8.212;2022-08-19T00:47:21;20.50;99.90
2487;DHT22;1254;49.144;8.212;2022-08-19T00:49:48;20.60;99.90
2487;DHT22;1254;49.144;8.212;2022-08-19T00:52:24;20.70;99.90
2487;DHT22;1254;49.144;8.212;2022-08-19T00:54:51;20.60;99.90
2487;DHT22;1254;49.144;8.212;2022-08-19T00:57:27;20.70;99.90
2487;DHT22;1254;49.144;8.212;2022-08-19T00:59:56;20.60;99.90
2487;DHT22;1254;49.144;8.212;2022-08-19T01:02:26;20.50;99.90
2487;DHT22;1254;49.144;8.212;2022-08-19T01:04:54;20.50;99.90
2487;DHT22;1254;49.144;8.212;2022-08-19T01:07:20;20.50;99.90
2487;DHT22;1254;49.144;8.212;2022-08-19T01:09:47;20.60;99.90
2487;DHT22;1254;49.144;8.212;2022-08-19T01:12:14;20.60;99.90
2487;DHT22;1254;49.144;8.212;2022-08-19T01:14:41;20.50;99.90
2487;DHT22;1254;49.144;8.212;2022-08-19T01:17:09;20.50;99.90
2487;DHT22;1254;49.144;8.212;2022-08-19T01:19:39;20.60;99.90
2487;DHT22;1254;49.144;8.212;2022-08-19T01:22:41;20.70;99.90
2487;DHT22;1254;49.144;8.212;2022-08-19T01:25:09;20.70;99.90
2487;DHT22;1254;49.144;8.212;2022-08-19T01:27:45;20.70;99.90
2487;DHT22;1254;49.144;8.212;2022-08-19T01:30:18;20.80;99.90
2487;DHT22;1254;49.144;8.212;2022-08-19T01:32:45;20.80;99.90
2487;DHT22;1254;49.144;8.212;2022-08-19T01:35:13;20.80;99.90
2487;DHT22;1254;49.144;8.212;2022-08-19T01:37:52;20.80;99.90
2487;DHT22;1254;49.144;8.212;2022-08-19T01:40:21;20.60;99.90
2487;DHT22;1254;49.144;8.212;2022-08-19T01:42:49;20.60;99.90
2487;DHT22;1254;49.144;8.212;2022-08-19T01:45:17;20.50;99.90
2487;DHT22;1254;49.144;8.212;2022-08-19T01:47:44;20.50;99.90
2487;DHT22;1254;49.144;8.212;2022-08-19T01:50:11;20.40;99.90
2487;DHT22;1254;49.144;8.212;2022-08-19T01:52:41;20.40;99.90
2487;DHT22;1254;49.144;8.212;2022-08-19T01:55:11;20.30;99.90
2487;DHT22;1254;49.144;8.212;2022-08-19T01:57:39;20.40;99.90
2487;DHT22;1254;49.144;8.212;2022-08-19T02:00:10;20.30;99.90
2487;DHT22;1254;49.144;8.212;2022-08-19T02:02:38;20.30;99.90
2487;DHT22;1254;49.144;8.212;2022-08-19T02:05:07;20.40;99.90
2487;DHT22;1254;49.144;8.212;2022-08-19T02:07:35;20.30;99.90
2487;DHT22;1254;49.144;8.212;2022-08-19T02:10:07;20.20;99.90
2487;DHT22;1254;49.144;8.212;2022-08-19T02:12:34;20.10;99.90
2487;DHT22;1254;49.144;8.212;2022-08-19T02:15:01;20.00;99.90
2487;DHT22;1254;49.144;8.212;2022-08-19T02:17:29;19.90;99.90
2487;DHT22;1254;49.144;8.212;2022-08-19T02:19:56;19.90;99.90
2487;DHT22;1254;49.144;8.212;2022-08-19T02:22:23;19.80;99.90
2487;DHT22;1254;49.144;8.212;2022-08-19T02:24:52;19.80;99.90
2487;DHT22;1254;49.144;8.212;2022-08-19T02:27:20;19.80;99.90
2487;DHT22;1254;49.144;8.212;2022-08-19T02:29:48;19.80;99.90
2487;DHT22;1254;49.144;8.212;2022-08-19T02:32:16;19.90;99.90
2487;DHT22;1254;49.144;8.212;2022-08-19T02:34:42;19.70;99.90
2487;DHT22;1254;49.144;8.212;2022-08-19T02:37:09;19.70;99.90
2487;DHT22;1254;49.144;8.212;2022-08-19T02:39:55;19.70;99.90
2487;DHT22;1254;49.144;8.212;2022-08-19T02:42:22;19.90;99.90
2487;DHT22;1254;49.144;8.212;2022-08-19T02:44:48;20.00;99.90
2487;DHT22;1254;49.144;8.212;2022-08-19T02:47:15;20.00;99.90
2487;DHT22;1254;49.144;8.212;2022-08-19T02:49:41;20.10;99.90
2487;DHT22;1254;49.144;8.212;2022-08-19T02:52:08;20.10;99.90
2487;DHT22;1254;49.144;8.212;2022-08-19T02:54:34;20.10;99.90
2487;DHT22;1254;49.144;8.212;2022-08-19T02:57:01;20.20;99.90
2487;DHT22;1254;49.144;8.212;2022-08-19T02:59:30;20.10;99.90
2487;DHT22;1254;49.144;8.212;2022-08-19T03:01:57;20.00;99.90
2487;DHT22;1254;49.144;8.212;2022-08-19T03:04:24;20.00;99.90
2487;DHT22;1254;49.144;8.212;2022-08-19T03:06:50;20.00;99.90
2487;DHT22;1254;49.144;8.212;2022-08-19T03:09:19;20.00;99.90
2487;DHT22;1254;49.144;8.212;2022-08-19T03:11:46;20.00;99.90
2487;DHT22;1254;49.144;8.212;2022-08-19T03:14:12;20.00;99.90
2487;DHT22;1254;49.144;8.212;2022-08-19T03:16:45;20.10;99.90
2487;DHT22;1254;49.144;8.212;2022-08-19T03:19:12;20.00;99.90
2487;DHT22;1254;49.144;8.212;2022-08-19T03:21:39;20.00;99.90
2487;DHT22;1254;49.144;8.212;2022-08-19T03:24:07;20.10;99.90
2487;DHT22;1254;49.144;8.212;2022-08-19T03:26:38;20.10;99.90
2487;DHT22;1254;49.144;8.212;2022-08-19T03:29:04;20.30;99.90
2487;DHT22;1254;49.144;8.212;2022-08-19T03:31:31;20.40;99.90
2487;DHT22;1254;49.144;8.212;2022-08-19T03:33:58;20.50;99.90
2487;DHT22;1254;49.144;8.212;2022-08-19T03:36:26;20.60;99.90
2487;DHT22;1254;49.144;8.212;2022-08-19T03:38:58;20.60;99.90
2487;DHT22;1254;49.144;8.212;2022-08-19T03:41:28;20.60;99.90
2487;DHT22;1254;49.144;8.212;2022-08-19T03:43:55;20.60;99.90
2487;DHT22;1254;49.144;8.212;2022-08-19T03:46:24;20.60;99.90
2487;DHT22;1254;49.144;8.212;2022-08-19T03:48:53;20.60;99.90
2487;DHT22;1254;49.144;8.212;2022-08-19T03:51:24;20.60;99.90
2487;DHT22;1254;49.144;8.212;2022-08-19T03:53:52;20.50;99.90
2487;DHT22;1254;49.144;8.212;2022-08-19T03:56:19;20.50;99.90
2487;DHT22;1254;49.144;8.212;2022-08-19T03:58:46;20.40;99.90
2487;DHT22;1254;49.144;8.212;2022-08-19T04:01:16;20.40;99.90
2487;DHT22;1254;49.144;8.212;2022-08-19T04:03:44;20.50;99.90
2487;DHT22;1254;49.144;8.212;2022-08-19T04:06:15;20.50;99.90
2487;DHT22;1254;49.144;8.212;2022-08-19T04:08:43;20.50;99.90
2487;DHT22;1254;49.144;8.212;2022-08-19T04:11:12;20.50;99.90
2487;DHT22;1254;49.144;8.212;2022-08-19T04:13:39;20.50;99.90
2487;DHT22;1254;49.144;8.212;2022-08-19T04:16:06;20.50;99.90
2487;DHT22;1254;49.144;8.212;2022-08-19T04:18:33;20.50;99.90
2487;DHT22;1254;49.144;8.212;2022-08-19T04:21:00;20.40;99.90
2487;DHT22;1254;49.144;8.212;2022-08-19T04:23:27;20.40;99.90
2487;DHT22;1254;49.144;8.212;2022-08-19T04:25:55;20.30;99.90
2487;DHT22;1254;49.144;8.212;2022-08-19T04:28:22;20.30;99.90
2487;DHT22;1254;49.144;8.212;2022-08-19T04:30:51;20.20;99.90
2487;DHT22;1254;49.144;8.212;2022-08-19T04:33:20;20.20;99.90
2487;DHT22;1254;49.144;8.212;2022-08-19T04:35:50;20.20;99.90
2487;DHT22;1254;49.144;8.212;2022-08-19T04:38:19;20.20;99.90
2487;DHT22;1254;49.144;8.212;2022-08-19T04:40:48;20.10;99.90
2487;DHT22;1254;49.144;8.212;2022-08-19T04:43:35;20.10;99.90
2487;DHT22;1254;49.144;8.212;2022-08-19T04:46:10;20.20;99.90
2487;DHT22;1254;49.144;8.212;2022-08-19T04:48:38;20.10;99.90
2487;DHT22;1254;49.144;8.212;2022-08-19T04:51:10;20.00;99.90
2487;DHT22;1254;49.144;8.212;2022-08-19T04:53:40;20.00;99.90
2487;DHT22;1254;49.144;8.212;2022-08-19T04:56:13;20.00;99.90
2487;DHT22;1254;49.144;8.212;2022-08-19T04:58:43;19.90;99.90
2487;DHT22;1254;49.144;8.212;2022-08-19T05:01:23;19.90;99.90
2487;DHT22;1254;49.144;8.212;2022-08-19T05:03:50;19.90;99.90
2487;DHT22;1254;49.144;8.212;2022-08-19T05:06:19;19.90;99.90
2487;DHT22;1254;49.144;8.212;2022-08-19T05:08:47;19.90;99.90
2487;DHT22;1254;49.144;8.212;2022-08-19T05:11:23;19.80;99.90
2487;DHT22;1254;49.144;8.212;2022-08-19T05:13:50;19.90;99.90
2487;DHT22;1254;49.144;8.212;2022-08-19T05:16:20;20.00;99.90
2487;DHT22;1254;49.144;8.212;2022-08-19T05:18:48;20.10;99.90
2487;DHT22;1254;49.144;8.212;2022-08-19T05:21:33;20.10;99.90
2487;DHT22;1254;49.144;8.212;2022-08-19T05:24:20;20.10;99.90
2487;DHT22;1254;49.144;8.212;2022-08-19T05:26:49;20.10;99.90
2487;DHT22;1254;49.144;8.212;2022-08-19T05:29:18;20.10;99.90
2487;DHT22;1254;49.144;8.212;2022-08-19T05:31:45;20.10;99.90
2487;DHT22;1254;49.144;8.212;2022-08-19T05:34:12;20.10;99.90
2487;DHT22;1254;49.144;8.212;2022-08-19T05:36:42;20.00;99.90
2487;DHT22;1254;49.144;8.212;2022-08-19T05:39:13;19.90;99.90
2487;DHT22;1254;49.144;8.212;2022-08-19T05:41:43;20.00;99.90
2487;DHT22;1254;49.144;8.212;2022-08-19T05:44:10;20.10;99.90
2487;DHT22;1254;49.144;8.212;2022-08-19T05:46:38;20.10;99.90
2487;DHT22;1254;49.144;8.212;2022-08-19T05:49:06;20.20;99.90
2487;DHT22;1254;49.144;8.212;2022-08-19T05:51:34;20.20;99.90
2487;DHT22;1254;49.144;8.212;2022-08-19T05:54:05;20.30;99.90
2487;DHT22;1254;49.144;8.212;2022-08-19T05:56:32;20.30;99.90
2487;DHT22;1254;49.144;8.212;2022-08-19T05:59:02;20.30;99.90
2487;DHT22;1254;49.144;8.212;2022-08-19T06:01:28;20.30;99.90
2487;DHT22;1254;49.144;8.212;2022-08-19T06:03:55;20.40;99.90
2487;DHT22;1254;49.144;8.212;2022-08-19T06:06:21;20.50;99.90
2487;DHT22;1254;49.144;8.212;2022-08-19T06:08:48;20.50;99.90
2487;DHT22;1254;49.144;8.212;2022-08-19T06:14:29;20.60;99.90
2487;DHT22;1254;49.144;8.212;2022-08-19T06:16:57;20.70;99.90
2487;DHT22;1254;49.144;8.212;2022-08-19T06:19:26;20.80;99.90
2487;DHT22;1254;49.144;8.212;2022-08-19T06:21:54;21.00;99.90
2487;DHT22;1254;49.144;8.212;2022-08-19T06:24:22;21.00;99.90
2487;DHT22;1254;49.144;8.212;2022-08-19T06:26:51;21.10;99.90
2487;DHT22;1254;49.144;8.212;2022-08-19T06:29:21;21.20;99.90
2487;DHT22;1254;49.144;8.212;2022-08-19T06:31:49;21.20;99.90
2487;DHT22;1254;49.144;8.212;2022-08-19T06:34:17;21.40;99.90
2487;DHT22;1254;49.144;8.212;2022-08-19T06:36:48;21.40;99.90
2487;DHT22;1254;49.144;8.212;2022-08-19T06:39:24;21.60;99.90
2487;DHT22;1254;49.144;8.212;2022-08-19T06:41:53;21.70;99.90
2487;DHT22;1254;49.144;8.212;2022-08-19T06:44:22;21.80;99.90
2487;DHT22;1254;49.144;8.212;2022-08-19T06:46:49;21.80;99.90
2487;DHT22;1254;49.144;8.212;2022-08-19T06:49:17;21.80;99.90
2487;DHT22;1254;49.144;8.212;2022-08-19T06:51:45;21.90;99.90
2487;DHT22;1254;49.144;8.212;2022-08-19T06:54:14;21.80;99.90
2487;DHT22;1254;49.144;8.212;2022-08-19T06:56:41;21.80;99.90
2487;DHT22;1254;49.144;8.212;2022-08-19T06:59:10;21.90;99.90
2487;DHT22;1254;49.144;8.212;2022-08-19T07:01:39;21.90;99.90
2487;DHT22;1254;49.144;8.212;2022-08-19T07:04:07;21.90;99.90
2487;DHT22;1254;49.144;8.212;2022-08-19T07:06:35;22.00;99.90
2487;DHT22;1254;49.144;8.212;2022-08-19T07:09:06;22.10;99.90
2487;DHT22;1254;49.144;8.212;2022-08-19T07:11:33;22.20;99.90
2487;DHT22;1254;49.144;8.212;2022-08-19T07:14:00;22.10;99.90
2487;DHT22;1254;49.144;8.212;2022-08-19T07:16:28;22.10;99.90
2487;DHT22;1254;49.144;8.212;2022-08-19T07:18:55;22.20;99.90
2487;DHT22;1254;49.144;8.212;2022-08-19T07:21:25;22.20;99.90
2487;DHT22;1254;49.144;8.212;2022-08-19T07:23:56;22.40;99.90
2487;DHT22;1254;49.144;8.212;2022-08-19T07:26:28;22.80;99.90
2487;DHT22;1254;49.144;8.212;2022-08-19T07:28:56;23.00;99.90
2487;DHT22;1254;49.144;8.212;2022-08-19T07:31:24;23.40;99.90
2487;DHT22;1254;49.144;8.212;2022-08-19T07:33:52;23.60;99.90
2487;DHT22;1254;49.144;8.212;2022-08-19T07:36:24;23.80;99.90
2487;DHT22;1254;49.144;8.212;2022-08-19T07:38:51;24.10;99.90
2487;DHT22;1254;49.144;8.212;2022-08-19T07:41:24;24.20;99.90
2487;DHT22;1254;49.144;8.212;2022-08-19T07:43:51;24.10;99.90
2487;DHT22;1254;49.144;8.212;2022-08-19T07:46:19;24.30;99.90
2487;DHT22;1254;49.144;8.212;2022-08-19T07:48:48;24.40;99.90
2487;DHT22;1254;49.144;8.212;2022-08-19T07:51:19;24.60;99.90
2487;DHT22;1254;49.144;8.212;2022-08-19T07:53:47;24.80;99.90
2487;DHT22;1254;49.144;8.212;2022-08-19T07:56:18;24.90;99.90
2487;DHT22;1254;49.144;8.212;2022-08-19T07:58:47;24.90;99.90
2487;DHT22;1254;49.144;8.212;2022-08-19T08:01:21;24.90;99.90
2487;DHT22;1254;49.144;8.212;2022-08-19T08:03:49;24.90;99.90
2487;DHT22;1254;49.144;8.212;2022-08-19T08:06:35;25.00;99.90
2487;DHT22;1254;49.144;8.212;2022-08-19T08:09:24;25.20;99.90
2487;DHT22;1254;49.144;8.212;2022-08-19T08:11:54;24.90;99.90
2487;DHT22;1254;49.144;8.212;2022-08-19T08:14:29;25.10;99.90
2487;DHT22;1254;49.144;8.212;2022-08-19T08:16:56;25.30;99.90
2487;DHT22;1254;49.144;8.212;2022-08-19T08:19:26;25.30;99.90
2487;DHT22;1254;49.144;8.212;2022-08-19T08:21:57;25.30;99.90
2487;DHT22;1254;49.144;8.212;2022-08-19T08:24:25;25.10;99.90
2487;DHT22;1254;49.144;8.212;2022-08-19T08:26:52;25.50;99.90
2487;DHT22;1254;49.144;8.212;2022-08-19T08:29:19;25.50;99.90
2487;DHT22;1254;49.144;8.212;2022-08-19T08:31:46;25.30;99.90
2487;DHT22;1254;49.144;8.212;2022-08-19T08:34:14;25.00;99.90
2487;DHT22;1254;49.144;8.212;2022-08-19T08:36:44;24.80;99.90
2487;DHT22;1254;49.144;8.212;2022-08-19T08:39:13;24.50;99.90
2487;DHT22;1254;49.144;8.212;2022-08-19T08:45:14;24.60;99.90
2487;DHT22;1254;49.144;8.212;2022-08-19T08:47:22;24.70;99.90
2487;DHT22;1254;49.144;8.212;2022-08-19T08:50:28;24.60;99.90
2487;DHT22;1254;49.144;8.212;2022-08-19T08:52:48;24.60;99.90
2487;DHT22;1254;49.144;8.212;2022-08-19T08:55:21;24.60;99.90
2487;DHT22;1254;49.144;8.212;2022-08-19T09:00:38;24.90;99.90
2487;DHT22;1254;49.144;8.212;2022-08-19T09:03:18;25.40;99.90
2487;DHT22;1254;49.144;8.212;2022-08-19T09:06:07;25.40;99.90
2487;DHT22;1254;49.144;8.212;2022-08-19T09:12:00;25.90;99.90
2487;DHT22;1254;49.144;8.212;2022-08-19T09:17:12;26.90;99.90
2487;DHT22;1254;49.144;8.212;2022-08-19T09:19:55;26.80;99.90
2487;DHT22;1254;49.144;8.212;2022-08-19T09:22:22;26.60;99.90
2487;DHT22;1254;49.144;8.212;2022-08-19T09:24:50;26.80;99.90
2487;DHT22;1254;49.144;8.212;2022-08-19T09:27:19;26.90;99.90
2487;DHT22;1254;49.144;8.212;2022-08-19T09:29:47;27.20;99.90
2487;DHT22;1254;49.144;8.212;2022-08-19T09:32:15;27.20;99.90
2487;DHT22;1254;49.144;8.212;2022-08-19T09:34:41;27.00;99.90
2487;DHT22;1254;49.144;8.212;2022-08-19T09:37:07;26.90;99.90
2487;DHT22;1254;49.144;8.212;2022-08-19T09:39:34;27.30;99.90
2487;DHT22;1254;49.144;8.212;2022-08-19T09:42:00;27.40;99.90
2487;DHT22;1254;49.144;8.212;2022-08-19T09:44:29;27.50;99.90
2487;DHT22;1254;49.144;8.212;2022-08-19T09:46:56;27.30;99.90
2487;DHT22;1254;49.144;8.212;2022-08-19T09:49:22;27.50;99.90
2487;DHT22;1254;49.144;8.212;2022-08-19T09:51:52;27.00;99.90
2487;DHT22;1254;49.144;8.212;2022-08-19T09:54:21;27.00;99.90
2487;DHT22;1254;49.144;8.212;2022-08-19T09:56:47;27.20;99.90
2487;DHT22;1254;49.144;8.212;2022-08-19T09:59:14;27.20;99.90
2487;DHT22;1254;49.144;8.212;2022-08-19T10:01:40;27.50;99.90
2487;DHT22;1254;49.144;8.212;2022-08-19T10:04:07;27.80;99.90
2487;DHT22;1254;49.144;8.212;2022-08-19T10:06:39;28.10;99.90
2487;DHT22;1254;49.144;8.212;2022-08-19T10:09:06;28.10;99.90
2487;DHT22;1254;49.144;8.212;2022-08-19T10:11:34;28.00;99.90
2487;DHT22;1254;49.144;8.212;2022-08-19T10:14:02;27.90;99.90
2487;DHT22;1254;49.144;8.212;2022-08-19T10:16:28;28.20;99.90
2487;DHT22;1254;49.144;8.212;2022-08-19T10:18:55;27.80;99.90
2487;DHT22;1254;49.144;8.212;2022-08-19T10:21:24;27.90;99.90
2487;DHT22;1254;49.144;8.212;2022-08-19T10:23:53;27.80;99.90
2487;DHT22;1254;49.144;8.212;2022-08-19T10:26:24;27.90;99.90
2487;DHT22;1254;49.144;8.212;2022-08-19T10:28:51;27.90;99.90
2487;DHT22;1254;49.144;8.212;2022-08-19T10:31:20;27.70;99.90
2487;DHT22;1254;49.144;8.212;2022-08-19T10:33:48;27.40;99.90
2487;DHT22;1254;49.144;8.212;2022-08-19T10:36:20;27.30;99.90
2487;DHT22;1254;49.144;8.212;2022-08-19T10:38:52;27.70;99.90
2487;DHT22;1254;49.144;8.212;2022-08-19T10:41:21;28.30;99.90
2487;DHT22;1254;49.144;8.212;2022-08-19T10:43:53;28.20;99.90
2487;DHT22;1254;49.144;8.212;2022-08-19T10:46:22;28.10;99.90
2487;DHT22;1254;49.144;8.212;2022-08-19T10:48:49;28.10;99.90
2487;DHT22;1254;49.144;8.212;2022-08-19T10:51:16;28.20;99.90
2487;DHT22;1254;49.144;8.212;2022-08-19T10:54:02;27.90;99.90
2487;DHT22;1254;49.144;8.212;2022-08-19T10:56:30;28.00;99.90
2487;DHT22;1254;49.144;8.212;2022-08-19T10:59:16;28.10;99.90
2487;DHT22;1254;49.144;8.212;2022-08-19T11:01:44;28.00;99.90
2487;DHT22;1254;49.144;8.212;2022-08-19T11:04:11;27.60;99.90
2487;DHT22;1254;49.144;8.212;2022-08-19T11:06:40;27.30;99.90
2487;DHT22;1254;49.144;8.212;2022-08-19T11:09:08;27.40;99.90
2487;DHT22;1254;49.144;8.212;2022-08-19T11:11:35;28.00;99.90
2487;DHT22;1254;49.144;8.212;2022-08-19T11:14:12;28.40;99.90
2487;DHT22;1254;49.144;8.212;2022-08-19T11:16:41;28.80;99.90
2487;DHT22;1254;49.144;8.212;2022-08-19T11:19:09;27.70;99.90
2487;DHT22;1254;49.144;8.212;2022-08-19T11:21:39;27.60;99.90
2487;DHT22;1254;49.144;8.212;2022-08-19T11:24:12;27.80;99.90
2487;DHT22;1254;49.144;8.212;2022-08-19T11:26:40;27.90;99.90
2487;DHT22;1254;49.144;8.212;2022-08-19T11:29:08;27.70;99.90
2487;DHT22;1254;49.144;8.212;2022-08-19T11:31:42;27.60;99.90
2487;DHT22;1254;49.144;8.212;2022-08-19T11:34:13;27.50;99.90
2487;DHT22;1254;49.144;8.212;2022-08-19T11:36:43;27.40;99.90
2487;DHT22;1254;49.144;8.212;2022-08-19T11:39:14;27.60;99.90
2487;DHT22;1254;49.144;8.212;2022-08-19T11:41:40;28.00;99.90
2487;DHT22;1254;49.144;8.212;2022-08-19T11:44:07;29.00;99.90
2487;DHT22;1254;49.144;8.212;2022-08-19T11:46:35;29.20;99.90
2487;DHT22;1254;49.144;8.212;2022-08-19T11:49:02;29.50;99.90
2487;DHT22;1254;49.144;8.212;2022-08-19T11:51:30;30.00;99.90
2487;DHT22;1254;49.144;8.212;2022-08-19T11:53:58;30.50;99.90
2487;DHT22;1254;49.144;8.212;2022-08-19T11:56:26;31.30;99.90
2487;DHT22;1254;49.144;8.212;2022-08-19T11:58:54;31.40;99.90
2487;DHT22;1254;49.144;8.212;2022-08-19T12:01:23;32.10;99.90
2487;DHT22;1254;49.144;8.212;2022-08-19T12:03:51;32.30;99.90
2487;DHT22;1254;49.144;8.212;2022-08-19T12:06:21;32.40;99.90
2487;DHT22;1254;49.144;8.212;2022-08-19T12:08:53;30.60;99.90
2487;DHT22;1254;49.144;8.212;2022-08-19T12:11:21;30.10;99.90
2487;DHT22;1254;49.144;8.212;2022-08-19T12:13:48;30.20;99.90
2487;DHT22;1254;49.144;8.212;2022-08-19T12:16:17;29.90;99.90
2487;DHT22;1254;49.144;8.212;2022-08-19T12:18:44;30.30;99.90
2487;DHT22;1254;49.144;8.212;2022-08-19T12:21:18;30.00;99.90
2487;DHT22;1254;49.144;8.212;2022-08-19T12:23:49;29.80;99.90
2487;DHT22;1254;49.144;8.212;2022-08-19T12:26:16;29.80;99.90
2487;DHT22;1254;49.144;8.212;2022-08-19T12:28:43;30.30;99.90
2487;DHT22;1254;49.144;8.212;2022-08-19T12:31:14;31.00;99.90
2487;DHT22;1254;49.144;8.212;2022-08-19T12:33:41;32.20;99.90
2487;DHT22;1254;49.144;8.212;2022-08-19T12:36:10;32.20;99.90
2487;DHT22;1254;49.144;8.212;2022-08-19T12:38:38;31.50;99.90
2487;DHT22;1254;49.144;8.212;2022-08-19T12:41:06;31.40;99.90
2487;DHT22;1254;49.144;8.212;2022-08-19T12:43:33;30.70;99.90
2487;DHT22;1254;49.144;8.212;2022-08-19T12:46:02;30.20;99.90
2487;DHT22;1254;49.144;8.212;2022-08-19T12:48:31;30.90;99.90
2487;DHT22;1254;49.144;8.212;2022-08-19T12:50:57;32.10;99.90
2487;DHT22;1254;49.144;8.212;2022-08-19T12:53:24;32.50;99.90
2487;DHT22;1254;49.144;8.212;2022-08-19T12:55:58;32.80;99.90
2487;DHT22;1254;49.144;8.212;2022-08-19T12:58:26;32.70;99.90
2487;DHT22;1254;49.144;8.212;2022-08-19T13:00:53;31.20;99.90
2487;DHT22;1254;49.144;8.212;2022-08-19T13:03:20;30.30;99.90
2487;DHT22;1254;49.144;8.212;2022-08-19T13:05:50;31.50;99.90
2487;DHT22;1254;49.144;8.212;2022-08-19T13:08:17;32.00;99.90
2487;DHT22;1254;49.144;8.212;2022-08-19T13:10:43;31.60;99.90
2487;DHT22;1254;49.144;8.212;2022-08-19T13:13:10;30.90;99.90
2487;DHT22;1254;49.144;8.212;2022-08-19T13:15:39;31.00;99.90
2487;DHT22;1254;49.144;8.212;2022-08-19T13:18:07;32.30;99.90
2487;DHT22;1254;49.144;8.212;2022-08-19T13:20:36;33.40;99.90
2487;DHT22;1254;49.144;8.212;2022-08-19T13:23:03;34.60;99.90
2487;DHT22;1254;49.144;8.212;2022-08-19T13:25:30;35.40;99.90
2487;DHT22;1254;49.144;8.212;2022-08-19T13:27:57;35.40;99.90
2487;DHT22;1254;49.144;8.212;2022-08-19T13:30:23;33.20;99.90
2487;DHT22;1254;49.144;8.212;2022-08-19T13:33:09;32.00;99.90
2487;DHT22;1254;49.144;8.212;2022-08-19T13:35:51;30.70;99.90
2487;DHT22;1254;49.144;8.212;2022-08-19T13:38:23;30.30;99.90
2487;DHT22;1254;49.144;8.212;2022-08-19T13:40:52;30.40;99.90
2487;DHT22;1254;49.144;8.212;2022-08-19T13:43:23;30.60;99.90
2487;DHT22;1254;49.144;8.212;2022-08-19T13:45:51;30.60;99.90
2487;DHT22;1254;49.144;8.212;2022-08-19T13:48:19;30.40;99.90
2487;DHT22;1254;49.144;8.212;2022-08-19T13:50:46;30.20;99.90
2487;DHT22;1254;49.144;8.212;2022-08-19T13:53:16;30.50;99.90
2487;DHT22;1254;49.144;8.212;2022-08-19T13:55:44;30.50;99.90
2487;DHT22;1254;49.144;8.212;2022-08-19T13:58:11;31.60;99.90
2487;DHT22;1254;49.144;8.212;2022-08-19T14:00:44;33.40;99.90
2487;DHT22;1254;49.144;8.212;2022-08-19T14:03:11;35.30;99.90
2487;DHT22;1254;49.144;8.212;2022-08-19T14:05:38;35.40;99.90
2487;DHT22;1254;49.144;8.212;2022-08-19T14:08:04;35.30;99.90
2487;DHT22;1254;49.144;8.212;2022-08-19T14:10:31;34.40;99.90
2487;DHT22;1254;49.144;8.212;2022-08-19T14:13:00;32.70;99.90
2487;DHT22;1254;49.144;8.212;2022-08-19T14:15:28;32.20;99.90
2487;DHT22;1254;49.144;8.212;2022-08-19T14:17:55;31.20;99.90
2487;DHT22;1254;49.144;8.212;2022-08-19T14:20:22;31.00;99.90
2487;DHT22;1254;49.144;8.212;2022-08-19T14:22:49;30.90;99.90
2487;DHT22;1254;49.144;8.212;2022-08-19T14:25:22;30.60;99.90
2487;DHT22;1254;49.144;8.212;2022-08-19T14:27:49;30.30;99.90
2487;DHT22;1254;49.144;8.212;2022-08-19T14:30:20;30.20;99.90
2487;DHT22;1254;49.144;8.212;2022-08-19T14:32:47;29.50;99.90
2487;DHT22;1254;49.144;8.212;2022-08-19T14:35:15;29.20;99.90
2487;DHT22;1254;49.144;8.212;2022-08-19T14:37:43;29.30;99.90
2487;DHT22;1254;49.144;8.212;2022-08-19T14:40:12;29.20;99.90
2487;DHT22;1254;49.144;8.212;2022-08-19T14:42:39;29.30;99.90
2487;DHT22;1254;49.144;8.212;2022-08-19T14:45:06;29.20;99.90
2487;DHT22;1254;49.144;8.212;2022-08-19T14:47:32;29.20;99.90
2487;DHT22;1254;49.144;8.212;2022-08-19T14:49:59;29.00;99.90
2487;DHT22;1254;49.144;8.212;2022-08-19T14:52:26;29.10;99.90
2487;DHT22;1254;49.144;8.212;2022-08-19T14:54:52;28.90;99.90
2487;DHT22;1254;49.144;8.212;2022-08-19T14:57:19;28.90;99.90
2487;DHT22;1254;49.144;8.212;2022-08-19T14:59:46;29.00;99.90
2487;DHT22;1254;49.144;8.212;2022-08-19T15:02:12;29.10;99.90
2487;DHT22;1254;49.144;8.212;2022-08-19T15:04:38;29.10;99.90
2487;DHT22;1254;49.144;8.212;2022-08-19T15:07:07;29.00;99.90
2487;DHT22;1254;49.144;8.212;2022-08-19T15:09:33;28.90;99.90
2487;DHT22;1254;49.144;8.212;2022-08-19T15:12:00;28.70;99.90
2487;DHT22;1254;49.144;8.212;2022-08-19T15:14:28;28.80;99.90
2487;DHT22;1254;49.144;8.212;2022-08-19T15:17:02;28.80;99.90
2487;DHT22;1254;49.144;8.212;2022-08-19T15:19:30;29.00;99.90
2487;DHT22;1254;49.144;8.212;2022-08-19T15:21:57;29.10;99.90
2487;DHT22;1254;49.144;8.212;2022-08-19T15:24:24;29.00;99.90
2487;DHT22;1254;49.144;8.212;2022-08-19T15:26:54;29.30;99.90
2487;DHT22;1254;49.144;8.212;2022-08-19T15:32:24;29.50;99.90
2487;DHT22;1254;49.144;8.212;2022-08-19T15:34:52;29.80;99.90
2487;DHT22;1254;49.144;8.212;2022-08-19T15:37:18;29.90;99.90
2487;DHT22;1254;49.144;8.212;2022-08-19T15:39:47;29.80;99.90
2487;DHT22;1254;49.144;8.212;2022-08-19T15:42:14;29.80;99.90
2487;DHT22;1254;49.144;8.212;2022-08-19T15:44:40;29.80;99.90
2487;DHT22;1254;49.144;8.212;2022-08-19T15:47:07;29.80;99.90
2487;DHT22;1254;49.144;8.212;2022-08-19T15:49:33;29.90;99.90
2487;DHT22;1254;49.144;8.212;2022-08-19T15:51:59;30.20;99.90
2487;DHT22;1254;49.144;8.212;2022-08-19T15:54:26;30.10;99.90
2487;DHT22;1254;49.144;8.212;2022-08-19T15:56:53;30.10;99.90
2487;DHT22;1254;49.144;8.212;2022-08-19T15:59:38;30.10;99.90
2487;DHT22;1254;49.144;8.212;2022-08-19T16:02:25;29.80;99.90
2487;DHT22;1254;49.144;8.212;2022-08-19T16:05:13;29.80;99.90
2487;DHT22;1254;49.144;8.212;2022-08-19T16:07:59;29.80;99.90
2487;DHT22;1254;49.144;8.212;2022-08-19T16:10:25;29.60;99.90
2487;DHT22;1254;49.144;8.212;2022-08-19T16:12:52;29.80;99.90
2487;DHT22;1254;49.144;8.212;2022-08-19T16:15:19;30.00;99.90
2487;DHT22;1254;49.144;8.212;2022-08-19T16:17:46;29.80;99.90
2487;DHT22;1254;49.144;8.212;2022-08-19T16:20:13;29.50;99.90
2487;DHT22;1254;49.144;8.212;2022-08-19T16:22:42;29.60;99.90
2487;DHT22;1254;49.144;8.212;2022-08-19T16:25:09;29.30;99.90
2487;DHT22;1254;49.144;8.212;2022-08-19T16:27:35;29.20;99.90
2487;DHT22;1254;49.144;8.212;2022-08-19T16:30:03;28.90;99.90
2487;DHT22;1254;49.144;8.212;2022-08-19T16:32:29;28.70;99.90